Terminal Aerodrome Forecast
Issued by NWS

Home | Current Version | Previous Version | Text Only | Print | Product List | Glossary Off
Versions: 1 2 3 4 5 6 7 8 9 10 11 12 13 14 15 16 17 18 19 20 21 22 23 24 25 26 27

000
FTUS43 KBIS 242300
TAFDIK
TAF
KDIK 242320Z 2500/2524 06010KT P6SM SCT120
     FM250800 11008KT P6SM SCT004
     FM251100 12009KT P6SM BKN004 OVC012
     FM251400 12009KT P6SM BKN008 OVC012
     FM251800 13012G20KT P6SM SCT020 BKN035=

USA.gov is the U.S. government's official web portal to all federal, state and local government web resources and services.